createdAt,value
2018-03-07T00:01:37.072Z,21.00
2018-03-07T00:04:05.157Z,21.00
2018-03-07T00:06:33.210Z,20.90
2018-03-07T00:09:01.277Z,20.90
2018-03-07T00:11:29.317Z,20.90
2018-03-07T00:13:57.723Z,20.90
2018-03-07T00:16:25.781Z,20.90
2018-03-07T00:18:53.815Z,20.80
2018-03-07T00:21:21.841Z,20.80
2018-03-07T00:23:49.897Z,20.80
2018-03-07T00:26:18.686Z,20.80
2018-03-07T00:28:46.760Z,20.70
2018-03-07T00:31:15.286Z,20.70
2018-03-07T00:33:44.051Z,20.70
2018-03-07T00:36:12.083Z,20.70
2018-03-07T00:38:40.119Z,20.70
2018-03-07T00:41:08.187Z,20.70
2018-03-07T00:43:36.221Z,20.70
2018-03-07T00:46:04.280Z,20.60
2018-03-07T00:48:32.309Z,20.60
2018-03-07T00:51:00.328Z,20.60
2018-03-07T00:53:28.379Z,20.60
2018-03-07T00:55:56.410Z,20.60
2018-03-07T00:58:24.431Z,20.50
2018-03-07T01:00:52.463Z,20.50
2018-03-07T01:03:20.530Z,20.50
2018-03-07T01:05:48.624Z,20.50
2018-03-07T01:08:16.656Z,20.50
2018-03-07T01:10:44.704Z,20.50
2018-03-07T01:13:13.518Z,20.40
2018-03-07T01:15:41.564Z,20.40
2018-03-07T01:18:09.644Z,20.40
2018-03-07T01:20:37.685Z,20.40
2018-03-07T01:23:05.705Z,20.40
2018-03-07T01:25:33.742Z,20.30
2018-03-07T01:28:01.787Z,20.30
2018-03-07T01:30:29.853Z,20.30
2018-03-07T01:32:57.876Z,20.30
2018-03-07T01:35:25.918Z,20.30
2018-03-07T01:37:54.711Z,20.20
2018-03-07T01:40:22.766Z,20.20
2018-03-07T01:42:50.831Z,20.20
2018-03-07T01:45:18.915Z,20.20
2018-03-07T01:47:46.968Z,20.20
2018-03-07T01:50:15.016Z,20.20
2018-03-07T01:52:43.079Z,20.20
2018-03-07T01:55:11.132Z,20.10
2018-03-07T01:57:39.164Z,20.10
2018-03-07T02:00:07.188Z,20.10
2018-03-07T02:02:35.225Z,20.10
2018-03-07T02:05:03.246Z,20.10
2018-03-07T02:07:31.318Z,20.00
2018-03-07T02:09:59.366Z,20.10
2018-03-07T02:12:27.389Z,20.00
2018-03-07T02:14:55.405Z,20.00
2018-03-07T02:17:24.195Z,20.00
2018-03-07T02:19:52.279Z,20.00
2018-03-07T02:22:20.311Z,20.00
2018-03-07T02:24:48.341Z,19.90
2018-03-07T02:27:16.364Z,20.00
2018-03-07T02:29:44.481Z,19.90
2018-03-07T02:32:12.531Z,19.90
2018-03-07T02:34:41.330Z,19.90
2018-03-07T02:37:09.351Z,19.90
2018-03-07T02:39:37.370Z,19.80
2018-03-07T02:42:05.387Z,19.80
2018-03-07T02:44:33.441Z,19.80
2018-03-07T02:47:01.489Z,19.80
2018-03-07T02:49:29.519Z,19.80
2018-03-07T02:51:57.547Z,19.70
2018-03-07T02:54:25.590Z,19.80
2018-03-07T02:56:53.753Z,19.70
2018-03-07T02:59:21.780Z,19.70
2018-03-07T03:01:49.812Z,19.70
2018-03-07T03:04:17.841Z,19.70
2018-03-07T03:06:45.869Z,19.60
2018-03-07T03:09:13.921Z,19.60
2018-03-07T03:11:41.968Z,19.60
2018-03-07T03:14:09.998Z,19.60
2018-03-07T03:16:38.016Z,19.60
2018-03-07T03:19:06.047Z,19.60
2018-03-07T03:21:34.107Z,19.50
2018-03-07T03:24:02.154Z,19.60
2018-03-07T03:26:30.187Z,19.60
2018-03-07T03:28:58.203Z,19.50
2018-03-07T03:31:27.027Z,19.50
2018-03-07T03:33:55.077Z,19.50
2018-03-07T03:36:23.110Z,19.50
2018-03-07T03:38:51.141Z,19.40
2018-03-07T03:41:19.177Z,19.40
2018-03-07T03:43:47.194Z,19.40
2018-03-07T03:46:15.271Z,19.40
2018-03-07T03:48:43.297Z,19.40
2018-03-07T03:51:11.319Z,19.40
2018-03-07T03:53:40.877Z,19.40
2018-03-07T03:56:08.898Z,19.40
2018-03-07T03:58:36.973Z,19.30
2018-03-07T04:01:05.079Z,19.30
2018-03-07T04:03:33.112Z,19.30
2018-03-07T04:06:01.151Z,19.30
2018-03-07T04:08:29.174Z,19.30
2018-03-07T04:10:57.236Z,19.30
2018-03-07T04:13:25.258Z,19.20
2018-03-07T04:15:53.298Z,19.20
2018-03-07T04:18:21.336Z,19.20
2018-03-07T04:20:49.363Z,19.20
2018-03-07T04:23:18.741Z,19.20
2018-03-07T04:25:46.762Z,19.20
2018-03-07T04:28:14.776Z,19.20
2018-03-07T04:30:46.420Z,19.10
2018-03-07T04:33:14.586Z,19.10
2018-03-07T04:35:42.671Z,19.10
2018-03-07T04:38:10.698Z,19.20
2018-03-07T04:40:38.769Z,19.30
2018-03-07T04:43:06.851Z,19.40
2018-03-07T04:45:35.676Z,19.60
2018-03-07T04:48:03.721Z,19.60
2018-03-07T04:50:31.754Z,19.70
2018-03-07T04:52:59.780Z,19.70
2018-03-07T04:55:27.804Z,19.90
2018-03-07T04:57:55.824Z,20.00
2018-03-07T05:00:23.881Z,20.20
2018-03-07T05:02:51.908Z,20.30
2018-03-07T05:05:19.951Z,20.40
2018-03-07T05:07:47.974Z,20.60
2018-03-07T05:10:16.028Z,20.70
2018-03-07T05:12:44.095Z,20.70
2018-03-07T05:15:12.109Z,20.80
2018-03-07T05:17:40.158Z,20.80
2018-03-07T05:20:08.296Z,20.80
2018-03-07T05:22:36.326Z,20.90
2018-03-07T05:25:04.389Z,20.90
2018-03-07T05:27:32.417Z,20.80
2018-03-07T05:30:01.258Z,20.40
2018-03-07T05:32:29.274Z,20.40
2018-03-07T05:34:57.291Z,20.30
2018-03-07T05:37:25.364Z,20.30
2018-03-07T05:39:53.583Z,20.30
2018-03-07T05:42:21.611Z,20.30
2018-03-07T05:44:49.643Z,20.20
2018-03-07T05:47:17.685Z,20.20
2018-03-07T05:49:45.741Z,20.20
2018-03-07T05:52:13.789Z,20.20
2018-03-07T05:54:41.831Z,20.20
2018-03-07T05:57:10.635Z,20.20
2018-03-07T05:59:38.661Z,20.20
2018-03-07T06:02:06.745Z,20.20
2018-03-07T06:04:34.792Z,20.20
2018-03-07T06:07:02.823Z,20.20
2018-03-07T06:09:30.905Z,20.20
2018-03-07T06:11:58.969Z,20.20
2018-03-07T06:14:27.052Z,20.20
2018-03-07T06:16:55.977Z,20.20
2018-03-07T06:19:24.056Z,20.20
2018-03-07T06:21:52.074Z,20.20
2018-03-07T06:24:20.116Z,20.20
2018-03-07T06:26:48.183Z,20.20
2018-03-07T06:29:16.226Z,20.20
2018-03-07T06:31:44.252Z,20.20
2018-03-07T06:34:12.290Z,20.30
2018-03-07T06:36:40.332Z,20.30
2018-03-07T06:39:08.420Z,20.30
2018-03-07T06:41:36.438Z,20.40
2018-03-07T06:44:04.521Z,20.50
2018-03-07T06:46:32.550Z,20.70
2018-03-07T06:49:00.584Z,20.50
2018-03-07T06:51:28.650Z,20.40
2018-03-07T06:53:56.758Z,20.30
2018-03-07T06:56:24.834Z,20.20
2018-03-07T06:58:52.874Z,20.20
2018-03-07T07:01:20.912Z,20.20
2018-03-07T07:03:48.982Z,20.20
2018-03-07T07:06:17.071Z,20.20
2018-03-07T07:08:45.126Z,20.20
2018-03-07T07:11:13.178Z,20.20
2018-03-07T07:13:41.239Z,20.20
2018-03-07T07:16:09.297Z,20.20
2018-03-07T07:18:37.352Z,20.30
2018-03-07T07:21:05.427Z,20.30
2018-03-07T07:23:33.461Z,20.30
2018-03-07T07:26:01.486Z,20.30
2018-03-07T07:28:29.544Z,20.30
2018-03-07T07:30:57.632Z,20.30
2018-03-07T07:33:26.468Z,20.30
2018-03-07T07:35:54.511Z,20.20
2018-03-07T07:38:22.563Z,20.20
2018-03-07T07:40:50.618Z,20.30
2018-03-07T07:43:18.692Z,20.30
2018-03-07T07:45:46.777Z,20.30
2018-03-07T07:48:14.815Z,20.20
2018-03-07T07:50:42.855Z,20.20
2018-03-07T07:53:10.895Z,20.20
2018-03-07T07:55:38.929Z,20.30
2018-03-07T07:58:07.011Z,20.30
2018-03-07T08:00:35.095Z,20.30
2018-03-07T08:03:03.123Z,20.20
2018-03-07T08:05:31.335Z,20.20
2018-03-07T08:07:59.354Z,20.20
2018-03-07T08:10:27.440Z,20.20
2018-03-07T08:12:55.480Z,20.20
2018-03-07T08:15:23.503Z,20.20
2018-03-07T08:17:51.567Z,20.10
2018-03-07T08:20:19.598Z,19.80
2018-03-07T08:22:48.462Z,19.40
2018-03-07T08:25:16.799Z,19.40
2018-03-07T08:27:44.856Z,19.50
2018-03-07T08:30:12.902Z,19.60
2018-03-07T08:32:40.972Z,19.70
2018-03-07T08:35:09.011Z,19.50
2018-03-07T08:37:37.038Z,19.50
2018-03-07T08:40:05.074Z,19.40
2018-03-07T08:42:33.154Z,19.40
2018-03-07T08:45:01.228Z,19.30
2018-03-07T08:47:29.293Z,19.30
2018-03-07T08:49:57.342Z,19.30
2018-03-07T08:52:25.394Z,19.20
2018-03-07T08:54:53.424Z,19.20
2018-03-07T08:57:23.007Z,19.30
2018-03-07T08:59:51.064Z,19.30
2018-03-07T09:02:19.104Z,19.40
2018-03-07T09:04:47.148Z,19.60
2018-03-07T09:07:15.212Z,19.70
2018-03-07T09:09:43.746Z,19.70
2018-03-07T09:12:11.869Z,19.80
2018-03-07T09:14:39.918Z,19.80
2018-03-07T09:17:07.980Z,19.80
2018-03-07T09:19:36.028Z,19.90
2018-03-07T09:22:04.123Z,19.90
2018-03-07T09:24:32.141Z,19.90
2018-03-07T09:27:00.665Z,19.90
2018-03-07T09:29:28.740Z,19.90
2018-03-07T09:31:56.762Z,19.90
2018-03-07T09:34:24.872Z,19.90
2018-03-07T09:36:52.925Z,19.90
2018-03-07T09:39:21.021Z,20.00
2018-03-07T09:41:49.097Z,20.00
2018-03-07T09:44:17.153Z,20.00
2018-03-07T09:46:45.210Z,20.00
2018-03-07T09:49:13.257Z,20.00
2018-03-07T09:51:41.293Z,20.00
2018-03-07T09:54:09.386Z,20.00
2018-03-07T09:56:37.526Z,20.00
2018-03-07T09:59:05.556Z,20.00
2018-03-07T10:01:33.625Z,20.00
2018-03-07T10:04:01.717Z,20.00
2018-03-07T10:06:29.793Z,20.10
2018-03-07T10:08:57.894Z,20.10
2018-03-07T10:11:25.997Z,20.10
2018-03-07T10:13:54.062Z,20.10
2018-03-07T10:16:22.153Z,20.20
2018-03-07T10:18:50.226Z,20.20
2018-03-07T10:21:18.277Z,20.20
2018-03-07T10:23:46.337Z,20.30
2018-03-07T10:26:14.398Z,20.30
2018-03-07T10:28:42.444Z,20.30
2018-03-07T10:31:10.536Z,20.20
2018-03-07T10:33:38.618Z,20.20
2018-03-07T10:36:06.692Z,20.10
2018-03-07T10:38:34.755Z,20.10
2018-03-07T10:41:02.820Z,20.20
2018-03-07T10:43:32.948Z,20.00
2018-03-07T10:46:01.022Z,20.00
2018-03-07T10:48:29.097Z,20.00
2018-03-07T10:50:57.148Z,20.00
2018-03-07T10:53:25.210Z,20.10
2018-03-07T10:55:53.265Z,20.10
2018-03-07T10:58:21.323Z,20.10
2018-03-07T11:00:49.410Z,20.10
2018-03-07T11:03:17.526Z,20.10
2018-03-07T11:05:45.595Z,20.20
2018-03-07T11:08:14.424Z,20.20
2018-03-07T11:10:42.472Z,20.10
2018-03-07T11:13:10.959Z,20.20
2018-03-07T11:15:39.030Z,20.20
2018-03-07T11:18:07.096Z,20.10
2018-03-07T11:20:35.136Z,20.10
2018-03-07T11:23:03.256Z,20.10
2018-03-07T11:25:31.341Z,20.20
2018-03-07T11:27:59.391Z,20.20
2018-03-07T11:30:27.487Z,20.20
2018-03-07T11:32:55.539Z,20.20
2018-03-07T11:35:23.579Z,20.20
2018-03-07T11:37:52.417Z,20.20
2018-03-07T11:40:20.484Z,20.10
2018-03-07T11:42:48.537Z,20.20
2018-03-07T11:45:17.073Z,20.20
2018-03-07T11:47:45.132Z,20.20
2018-03-07T11:50:13.212Z,20.20
2018-03-07T11:52:41.282Z,20.20
2018-03-07T11:55:09.322Z,20.20
2018-03-07T11:57:37.355Z,20.20
2018-03-07T12:00:05.417Z,20.20
2018-03-07T12:02:33.490Z,20.20
2018-03-07T12:05:01.518Z,20.20
2018-03-07T12:07:29.579Z,20.20
2018-03-07T12:09:57.633Z,20.20
2018-03-07T12:12:25.674Z,20.20
2018-03-07T12:14:53.755Z,20.20
2018-03-07T12:17:21.823Z,20.20
2018-03-07T12:19:49.840Z,20.10
2018-03-07T12:22:17.891Z,20.00
2018-03-07T12:24:45.924Z,20.00
2018-03-07T12:27:13.984Z,19.90
2018-03-07T12:29:42.034Z,19.30
2018-03-07T12:32:10.104Z,18.80
2018-03-07T12:34:38.141Z,18.50
2018-03-07T12:37:06.934Z,19.30
2018-03-07T12:39:34.978Z,19.30
2018-03-07T12:42:03.018Z,19.60
2018-03-07T12:44:31.099Z,19.80
2018-03-07T12:46:59.129Z,20.00
2018-03-07T12:49:27.936Z,20.20
2018-03-07T12:51:55.954Z,20.20
2018-03-07T12:54:23.974Z,20.30
2018-03-07T12:56:52.803Z,20.40
2018-03-07T12:59:20.826Z,20.30
2018-03-07T13:01:48.881Z,20.40
2018-03-07T13:04:18.435Z,20.40
2018-03-07T13:06:46.475Z,20.40
2018-03-07T13:09:14.546Z,20.50
2018-03-07T13:11:42.603Z,20.50
2018-03-07T13:14:10.647Z,20.50
2018-03-07T13:16:38.973Z,20.50
2018-03-07T13:19:06.997Z,20.60
2018-03-07T13:21:35.031Z,20.60
2018-03-07T13:24:03.137Z,20.60
2018-03-07T13:26:31.177Z,20.60
2018-03-07T13:28:59.208Z,20.60
2018-03-07T13:31:27.224Z,20.60
2018-03-07T13:33:55.297Z,20.60
2018-03-07T13:36:23.573Z,20.70
2018-03-07T13:38:52.096Z,20.70
2018-03-07T13:41:20.944Z,20.40
2018-03-07T13:43:49.069Z,20.40
2018-03-07T13:46:17.110Z,20.50
2018-03-07T13:48:45.151Z,20.60
2018-03-07T13:51:13.244Z,20.60
2018-03-07T13:53:41.292Z,20.70
2018-03-07T13:56:09.358Z,20.70
2018-03-07T13:58:37.423Z,20.70
2018-03-07T14:01:05.459Z,20.70
2018-03-07T14:03:33.522Z,20.70
2018-03-07T14:06:01.576Z,20.50
2018-03-07T14:08:29.674Z,20.40
2018-03-07T14:10:57.723Z,20.50
2018-03-07T14:13:25.803Z,20.60
2018-03-07T14:15:53.876Z,20.60
2018-03-07T14:18:21.917Z,20.70
2018-03-07T14:20:49.958Z,20.70
2018-03-07T14:23:18.140Z,20.70
2018-03-07T14:25:46.283Z,20.70
2018-03-07T14:28:14.333Z,20.70
2018-03-07T14:30:42.431Z,20.80
2018-03-07T14:33:10.502Z,20.80
2018-03-07T14:35:38.550Z,20.80
2018-03-07T14:38:06.618Z,20.80
2018-03-07T14:40:34.663Z,20.80
2018-03-07T14:43:02.736Z,20.80
2018-03-07T14:45:30.784Z,20.80
2018-03-07T14:48:00.360Z,20.80
2018-03-07T14:50:28.451Z,20.80
2018-03-07T14:52:56.488Z,20.80
2018-03-07T14:55:24.579Z,20.80
2018-03-07T14:57:52.638Z,20.80
2018-03-07T15:00:20.676Z,20.80
2018-03-07T15:02:48.750Z,20.80
2018-03-07T15:05:16.790Z,20.80
2018-03-07T15:07:44.856Z,20.80
2018-03-07T15:10:14.447Z,20.80
2018-03-07T15:12:43.257Z,20.90
2018-03-07T15:15:11.314Z,20.90
2018-03-07T15:17:39.373Z,20.80
2018-03-07T15:20:07.444Z,20.90
2018-03-07T15:22:35.497Z,20.90
2018-03-07T15:25:03.551Z,20.80
2018-03-07T15:27:32.441Z,20.60
2018-03-07T15:30:00.557Z,20.60
2018-03-07T15:32:29.403Z,20.20
2018-03-07T15:34:57.477Z,20.10
2018-03-07T15:37:26.303Z,20.30
2018-03-07T15:39:54.357Z,20.30
2018-03-07T15:42:22.422Z,20.40
2018-03-07T15:44:50.561Z,20.60
2018-03-07T15:47:19.418Z,20.70
2018-03-07T15:49:47.493Z,20.70
2018-03-07T15:52:15.571Z,20.70
2018-03-07T15:54:43.688Z,20.70
2018-03-07T15:57:12.519Z,20.80
2018-03-07T15:59:40.606Z,20.80
2018-03-07T16:02:08.683Z,20.80
2018-03-07T16:04:36.739Z,20.80
2018-03-07T16:07:04.778Z,20.80
2018-03-07T16:09:32.827Z,20.80
2018-03-07T16:12:01.338Z,20.80
2018-03-07T16:14:29.386Z,20.80
2018-03-07T16:16:57.419Z,20.80
2018-03-07T16:19:25.520Z,20.90
2018-03-07T16:21:53.603Z,20.80
2018-03-07T16:24:21.666Z,20.90
2018-03-07T16:26:49.723Z,20.90
2018-03-07T16:29:19.874Z,20.70
2018-03-07T16:31:48.100Z,20.70
2018-03-07T16:34:16.302Z,20.70
2018-03-07T16:36:44.384Z,20.80
2018-03-07T16:39:13.670Z,20.80
2018-03-07T16:41:41.820Z,20.80
2018-03-07T16:44:09.894Z,20.90
2018-03-07T16:46:37.969Z,20.80
2018-03-07T16:49:06.030Z,20.90
2018-03-07T16:51:34.114Z,20.90
2018-03-07T16:54:02.231Z,20.90
2018-03-07T16:56:30.349Z,20.90
2018-03-07T16:58:58.400Z,20.80
2018-03-07T17:01:26.427Z,20.70
2018-03-07T17:03:54.464Z,20.80
2018-03-07T17:06:22.587Z,20.80
2018-03-07T17:08:50.649Z,20.90
2018-03-07T17:11:18.720Z,20.90
2018-03-07T17:13:47.555Z,20.80
2018-03-07T17:16:15.623Z,20.90
2018-03-07T17:18:43.656Z,20.90
2018-03-07T17:21:11.717Z,20.90
2018-03-07T17:23:39.774Z,20.90
2018-03-07T17:26:07.855Z,20.70
2018-03-07T17:28:35.899Z,20.80
2018-03-07T17:31:03.937Z,20.80
2018-03-07T17:33:31.980Z,20.80
2018-03-07T17:36:00.091Z,20.90
2018-03-07T17:38:28.130Z,20.80
2018-03-07T17:40:56.152Z,20.70
2018-03-07T17:43:24.200Z,20.60
2018-03-07T17:45:53.000Z,20.60
2018-03-07T17:48:21.644Z,20.60
2018-03-07T17:50:49.693Z,20.60
2018-03-07T17:53:17.754Z,20.40
2018-03-07T17:55:47.356Z,19.70
2018-03-07T17:58:16.184Z,19.60
2018-03-07T18:00:44.242Z,19.60
2018-03-07T18:03:12.310Z,19.90
2018-03-07T18:05:40.346Z,20.10
2018-03-07T18:08:08.360Z,20.30
2018-03-07T18:10:36.397Z,20.40
2018-03-07T18:13:04.478Z,20.60
2018-03-07T18:15:32.548Z,20.60
2018-03-07T18:18:00.621Z,20.70
2018-03-07T18:20:29.413Z,20.80
2018-03-07T18:22:57.458Z,20.80
2018-03-07T18:25:26.321Z,20.80
2018-03-07T18:27:54.371Z,20.80
2018-03-07T18:30:22.411Z,20.90
2018-03-07T18:32:50.433Z,20.90
2018-03-07T18:35:18.485Z,20.90
2018-03-07T18:37:46.543Z,20.90
2018-03-07T18:40:14.593Z,21.00
2018-03-07T18:42:42.682Z,20.90
2018-03-07T18:45:10.760Z,21.00
2018-03-07T18:47:38.835Z,21.00
2018-03-07T18:50:06.873Z,21.00
2018-03-07T18:52:34.961Z,21.00
2018-03-07T18:55:03.023Z,21.00
2018-03-07T18:57:31.123Z,21.00
2018-03-07T18:59:59.226Z,21.00
2018-03-07T19:02:28.771Z,21.00
2018-03-07T19:04:56.816Z,21.00
2018-03-07T19:07:24.848Z,21.10
2018-03-07T19:09:52.905Z,21.10
2018-03-07T19:12:20.980Z,21.10
2018-03-07T19:14:49.039Z,21.10
2018-03-07T19:17:17.111Z,21.10
2018-03-07T19:19:45.201Z,21.10
2018-03-07T19:22:13.244Z,21.10
2018-03-07T19:24:41.300Z,21.10
2018-03-07T19:27:09.347Z,21.20
2018-03-07T19:29:37.425Z,21.20
2018-03-07T19:32:05.494Z,21.20
2018-03-07T19:34:33.565Z,21.20
2018-03-07T19:37:01.620Z,21.20
2018-03-07T19:39:29.669Z,21.20
2018-03-07T19:41:57.731Z,21.20
2018-03-07T19:44:25.817Z,21.20
2018-03-07T19:46:53.868Z,21.20
2018-03-07T19:49:21.990Z,21.20
2018-03-07T19:51:50.048Z,21.30
2018-03-07T19:54:18.092Z,21.30
2018-03-07T19:56:46.157Z,21.30
2018-03-07T19:59:14.244Z,21.30
2018-03-07T20:01:42.314Z,21.30
2018-03-07T20:04:10.377Z,21.30
2018-03-07T20:06:38.427Z,21.30
2018-03-07T20:09:06.509Z,21.30
2018-03-07T20:11:34.563Z,21.30
2018-03-07T20:14:02.617Z,21.30
2018-03-07T20:16:30.659Z,21.30
2018-03-07T20:18:58.743Z,21.30
2018-03-07T20:21:26.781Z,21.30
2018-03-07T20:23:54.812Z,21.40
2018-03-07T20:26:22.852Z,21.40
2018-03-07T20:28:50.912Z,21.40
2018-03-07T20:31:19.090Z,21.40
2018-03-07T20:33:47.153Z,21.30
2018-03-07T20:36:15.235Z,21.40
2018-03-07T20:38:43.308Z,21.40
2018-03-07T20:41:11.359Z,21.40
2018-03-07T20:43:39.421Z,21.40
2018-03-07T20:46:08.231Z,21.40
2018-03-07T20:48:36.325Z,21.40
2018-03-07T20:51:04.375Z,21.40
2018-03-07T20:53:32.445Z,21.40
2018-03-07T20:56:00.489Z,21.40
2018-03-07T20:58:28.545Z,21.40
2018-03-07T21:00:56.597Z,21.40
2018-03-07T21:03:24.651Z,21.40
2018-03-07T21:05:52.737Z,21.40
2018-03-07T21:08:20.796Z,21.40
2018-03-07T21:10:48.852Z,21.40
2018-03-07T21:13:16.930Z,21.30
2018-03-07T21:15:44.966Z,21.20
2018-03-07T21:18:13.961Z,21.20
2018-03-07T21:20:42.037Z,21.20
2018-03-07T21:23:10.108Z,21.20
2018-03-07T21:25:38.171Z,21.10
2018-03-07T21:28:06.224Z,21.00
2018-03-07T21:30:34.275Z,21.00
2018-03-07T21:33:02.340Z,20.80
2018-03-07T21:35:30.401Z,20.80
2018-03-07T21:37:58.470Z,20.80
2018-03-07T21:40:26.524Z,20.80
2018-03-07T21:42:55.349Z,20.80
2018-03-07T21:45:23.414Z,20.80
2018-03-07T21:47:51.486Z,20.80
2018-03-07T21:50:19.524Z,20.70
2018-03-07T21:52:47.588Z,20.70
2018-03-07T21:55:16.477Z,20.70
2018-03-07T21:57:44.523Z,20.70
2018-03-07T22:00:12.608Z,20.70
2018-03-07T22:02:40.632Z,20.80
2018-03-07T22:05:08.696Z,20.90
2018-03-07T22:07:36.736Z,20.90
2018-03-07T22:10:04.765Z,20.90
2018-03-07T22:12:32.839Z,20.90
2018-03-07T22:15:00.883Z,20.90
2018-03-07T22:17:28.904Z,20.90
2018-03-07T22:19:56.962Z,20.90
2018-03-07T22:22:24.995Z,20.90
2018-03-07T22:24:53.109Z,20.90
2018-03-07T22:27:21.563Z,20.90
2018-03-07T22:29:51.482Z,20.90
2018-03-07T22:32:19.505Z,20.90
2018-03-07T22:34:47.537Z,20.90
2018-03-07T22:37:15.613Z,20.80
2018-03-07T22:39:43.641Z,20.80
2018-03-07T22:42:11.727Z,20.80
2018-03-07T22:44:39.768Z,20.80
2018-03-07T22:47:07.798Z,20.80
2018-03-07T22:49:35.869Z,20.70
2018-03-07T22:52:03.897Z,20.70
2018-03-07T22:54:31.952Z,20.70
2018-03-07T22:57:00.040Z,20.60
2018-03-07T22:59:28.079Z,20.60
2018-03-07T23:01:56.160Z,20.60
2018-03-07T23:04:24.198Z,20.60
2018-03-07T23:06:53.057Z,20.50
2018-03-07T23:09:21.086Z,20.50
2018-03-07T23:11:49.113Z,20.50
2018-03-07T23:14:17.169Z,20.50
2018-03-07T23:16:45.199Z,20.50
2018-03-07T23:19:14.009Z,20.50
2018-03-07T23:21:42.065Z,20.40
2018-03-07T23:24:10.140Z,20.40
2018-03-07T23:26:39.714Z,20.40
2018-03-07T23:29:07.771Z,20.40
2018-03-07T23:31:35.816Z,20.40
2018-03-07T23:34:04.618Z,20.40
2018-03-07T23:36:32.654Z,20.30
2018-03-07T23:39:00.720Z,20.30
2018-03-07T23:41:28.768Z,20.30
2018-03-07T23:43:56.820Z,20.30
2018-03-07T23:46:24.875Z,20.30
2018-03-07T23:48:52.948Z,20.30
2018-03-07T23:51:21.011Z,20.20
2018-03-07T23:53:49.106Z,20.20
2018-03-07T23:56:17.143Z,20.20
2018-03-07T23:58:45.217Z,20.20
